Time;durP1;ratioP1;P1;durP2;ratioP2;P2;SDS_P1;SDS_P2;PMS_P1;PMS_P2;Temp;Humidity;BMP_temperature;BMP_pressure;BME280_temperature;BME280_humidity;BME280_pressure;Samples;Min_cycle;Max_cycle;Signal;HPM_P1;HPM_P2
2022/03/25 00:00:33;;;;;;;29.17;17.57;;;;;;;5.60;59.71;97111.50;5047834;28;20061;-87
2022/03/25 00:02:59;;;;;;;29.53;18.37;;;;;;;5.61;59.90;97113.19;5037152;28;20052;-87
2022/03/25 00:05:25;;;;;;;27.87;19.10;;;;;;;5.50;60.79;97110.47;5041285;28;20803;-86
2022/03/25 00:07:51;;;;;;;31.27;18.63;;;;;;;5.55;61.05;97113.59;5036595;28;20036;-86
2022/03/25 00:10:16;;;;;;;27.17;18.50;;;;;;;5.46;61.71;97114.22;5032251;28;20081;-87
2022/03/25 00:12:42;;;;;;;29.87;19.17;;;;;;;5.46;61.96;97115.06;5053269;28;20452;-85
2022/03/25 00:15:08;;;;;;;30.97;19.43;;;;;;;5.37;61.25;97113.94;5036145;28;20056;-87
2022/03/25 00:17:34;;;;;;;32.50;18.87;;;;;;;5.34;62.05;97116.75;5054759;28;20029;-86
2022/03/25 00:20:00;;;;;;;28.57;18.20;;;;;;;5.40;61.70;97113.72;5038077;28;20399;-87
2022/03/25 00:22:25;;;;;;;29.50;18.67;;;;;;;5.32;62.47;97118.63;5037913;28;20526;-87
2022/03/25 00:24:51;;;;;;;28.30;19.30;;;;;;;5.14;63.70;97115.50;5066144;28;20116;-87
2022/03/25 00:27:18;;;;;;;30.07;19.37;;;;;;;5.09;64.03;97112.34;5057875;28;20115;-87
2022/03/25 00:29:44;;;;;;;35.37;19.93;;;;;;;4.85;66.33;97112.22;5038683;28;20037;-87
2022/03/25 00:32:10;;;;;;;30.30;18.77;;;;;;;4.89;65.50;97116.28;5036292;28;20079;-86
2022/03/25 00:34:47;;;;;;;32.53;19.27;;;;;;;4.80;65.48;97116.94;5032021;28;20040;-87
2022/03/25 00:37:13;;;;;;;30.90;18.80;;;;;;;4.70;66.51;97106.28;5036178;28;20558;-87
2022/03/25 00:39:38;;;;;;;32.63;17.90;;;;;;;4.76;65.28;97105.03;5040380;28;20446;-85
2022/03/25 00:42:05;;;;;;;31.53;18.93;;;;;;;4.66;66.14;97107.44;5025710;28;20029;-86
2022/03/25 00:44:31;;;;;;;28.13;17.90;;;;;;;4.62;66.62;97105.94;5040414;28;20060;-87
2022/03/25 00:46:58;;;;;;;29.43;18.40;;;;;;;4.55;66.84;97106.44;5043198;28;20478;-87
2022/03/25 00:49:29;;;;;;;29.73;18.40;;;;;;;4.74;65.53;97104.31;5035739;28;21003;-87
2022/03/25 00:51:56;;;;;;;31.57;19.33;;;;;;;4.60;66.72;97102.63;5039787;28;20497;-87
2022/03/25 00:54:23;;;;;;;33.43;18.80;;;;;;;4.55;67.01;97102.06;5038884;28;20558;-87
2022/03/25 00:56:54;;;;;;;30.10;18.30;;;;;;;4.56;67.91;97097.69;5055675;28;21069;-87
2022/03/25 00:59:20;;;;;;;28.27;17.20;;;;;;;4.53;68.08;97100.50;5040453;28;20498;-86
2022/03/25 01:01:47;;;;;;;26.67;17.37;;;;;;;4.46;68.17;97093.09;5040112;28;20494;-86
2022/03/25 01:04:13;;;;;;;33.80;18.83;;;;;;;4.44;69.08;97094.13;5032347;28;20029;-87
2022/03/25 01:06:38;;;;;;;30.07;18.73;;;;;;;4.54;69.11;97096.97;5032223;28;20443;-86
2022/03/25 01:09:05;;;;;;;26.03;17.57;;;;;;;4.54;68.25;97089.16;5045218;28;20184;-86
2022/03/25 01:11:33;;;;;;;29.40;17.97;;;;;;;4.46;69.23;97087.03;5048851;28;20455;-87
2022/03/25 01:14:04;;;;;;;30.57;19.90;;;;;;;4.53;68.22;97092.69;5048190;28;20446;-87
2022/03/25 01:16:30;;;;;;;33.07;18.83;;;;;;;4.51;68.95;97091.97;5036071;28;20525;-87
2022/03/25 01:18:55;;;;;;;30.07;19.30;;;;;;;4.44;69.19;97083.72;5045585;28;20454;-85
2022/03/25 01:21:23;;;;;;;27.33;18.27;;;;;;;4.42;68.76;97086.41;5063934;28;20029;-87
2022/03/25 01:23:49;;;;;;;33.57;19.97;;;;;;;4.45;68.13;97081.00;5054416;28;20039;-87
2022/03/25 01:26:15;;;;;;;29.47;18.87;;;;;;;4.41;68.78;97084.75;5052843;28;20450;-87
2022/03/25 01:28:41;;;;;;;32.17;20.00;;;;;;;4.44;68.54;97084.53;5059134;28;20041;-87
2022/03/25 01:31:09;;;;;;;33.00;20.77;;;;;;;4.52;67.45;97080.59;5050341;28;20032;-87
2022/03/25 01:33:37;;;;;;;31.37;19.17;;;;;;;4.61;66.96;97085.22;5053368;28;20455;-87
2022/03/25 01:36:04;;;;;;;30.70;19.23;;;;;;;4.42;68.57;97086.41;5037611;28;20458;-86
2022/03/25 01:38:30;;;;;;;30.83;19.77;;;;;;;4.44;68.49;97081.94;5034435;28;20462;-87
2022/03/25 01:40:59;;;;;;;28.13;18.57;;;;;;;4.44;68.72;97079.34;5040120;28;20465;-86
2022/03/25 01:43:28;;;;;;;29.37;18.53;;;;;;;4.44;68.13;97078.50;5039811;28;20454;-87
2022/03/25 01:45:54;;;;;;;31.50;19.60;;;;;;;4.44;68.43;97083.72;5056093;28;21182;-87
2022/03/25 01:48:21;;;;;;;34.37;19.60;;;;;;;4.42;68.37;97075.97;5040164;28;20462;-86
2022/03/25 01:50:48;;;;;;;33.13;20.40;;;;;;;4.42;68.60;97081.19;5039312;28;20466;-86
2022/03/25 01:53:19;;;;;;;30.07;20.87;;;;;;;4.28;68.69;97078.66;5035887;28;20485;-86
2022/03/25 01:55:56;;;;;;;31.63;20.47;;;;;;;4.24;69.44;97074.59;5045334;28;21024;-86
2022/03/25 01:58:33;;;;;;;33.00;19.90;;;;;;;4.20;70.03;97070.53;5028556;28;20490;-86
2022/03/25 02:01:02;;;;;;;30.37;19.13;;;;;;;4.14;70.67;97074.34;5034954;28;20993;-86
2022/03/25 02:03:28;;;;;;;32.00;18.37;;;;;;;4.13;70.08;97069.25;5033313;28;20488;-86
2022/03/25 02:05:56;;;;;;;29.23;19.33;;;;;;;4.06;70.03;97066.22;5038666;28;21004;-86
2022/03/25 02:08:22;;;;;;;35.27;20.67;;;;;;;3.87;71.40;97074.34;5049111;28;20471;-86
2022/03/25 02:10:48;;;;;;;32.83;19.10;;;;;;;3.85;71.61;97068.41;5033253;28;21488;-87
2022/03/25 02:13:19;;;;;;;32.00;20.83;;;;;;;3.91;71.32;97068.00;5038642;28;20467;-87
2022/03/25 02:15:49;;;;;;;33.53;20.23;;;;;;;3.83;72.23;97072.88;5035760;28;20462;-86
2022/03/25 02:18:20;;;;;;;34.47;19.87;;;;;;;3.81;71.71;97074.72;5033592;28;20459;-86
2022/03/25 02:20:49;;;;;;;33.03;19.13;;;;;;;3.61;72.63;97080.34;5048336;28;20470;-85
2022/03/25 02:23:17;;;;;;;31.20;19.83;;;;;;;3.59;73.55;97070.06;5040351;28;20494;-87
2022/03/25 02:25:44;;;;;;;35.63;21.57;;;;;;;3.61;75.08;97072.56;5055653;28;20462;-87
2022/03/25 02:28:12;;;;;;;35.20;21.47;;;;;;;3.48;75.70;97082.88;5033529;28;20483;-87
2022/03/25 02:30:52;;;;;;;32.03;20.23;;;;;;;3.49;76.35;97075.00;5045847;28;20451;-87
2022/03/25 02:33:18;;;;;;;31.40;20.93;;;;;;;3.51;76.23;97077.47;5043728;28;20466;-86
2022/03/25 02:35:51;;;;;;;32.77;21.40;;;;;;;3.26;77.81;97079.00;5033428;28;20456;-87
2022/03/25 02:38:23;;;;;;;32.77;20.80;;;;;;;3.34;78.01;97075.91;5033779;28;20037;-87
2022/03/25 02:40:50;;;;;;;32.17;19.20;;;;;;;3.37;78.16;97075.72;5018386;28;20483;-87
2022/03/25 02:43:17;;;;;;;29.87;18.90;;;;;;;3.29;79.84;97081.41;5018341;28;20467;-87
2022/03/25 02:45:48;;;;;;;32.17;19.63;;;;;;;3.25;79.43;97073.88;5034437;28;20549;-87
2022/03/25 02:48:14;;;;;;;30.53;19.67;;;;;;;3.00;80.74;97075.38;5019620;28;20546;-87
2022/03/25 02:50:40;;;;;;;28.43;19.17;;;;;;;3.13;82.05;97072.88;5020972;28;20037;-86
2022/03/25 02:53:06;;;;;;;27.10;18.43;;;;;;;3.14;81.79;97074.53;5016274;28;20566;-87
2022/03/25 02:55:32;;;;;;;32.03;20.10;;;;;;;2.98;81.98;97073.78;5034895;28;20444;-87
2022/03/25 02:57:58;;;;;;;31.70;19.60;;;;;;;3.00;82.18;97077.97;5017835;28;20454;-86
2022/03/25 03:00:26;;;;;;;36.17;20.03;;;;;;;3.00;82.48;97083.16;5017616;28;20033;-86
2022/03/25 03:02:52;;;;;;;30.63;20.30;;;;;;;3.04;82.81;97082.03;5035835;28;20120;-86
2022/03/25 03:05:18;;;;;;;29.90;19.33;;;;;;;3.07;82.11;97083.63;5035863;28;20462;-87
2022/03/25 03:07:45;;;;;;;27.93;17.23;;;;;;;2.96;81.62;97075.66;5019680;28;20479;-86
2022/03/25 03:10:12;;;;;;;28.70;17.43;;;;;;;2.96;80.68;97092.06;5035641;28;20032;-87
2022/03/25 03:12:48;;;;;;;30.97;18.17;;;;;;;2.91;81.48;97082.88;5033784;28;20460;-87
2022/03/25 03:15:17;;;;;;;32.07;19.07;;;;;;;2.77;81.65;97092.31;5034584;28;20502;-87
2022/03/25 03:17:45;;;;;;;31.67;19.30;;;;;;;2.72;82.50;97089.16;5019759;28;20475;-87
2022/03/25 03:20:12;;;;;;;31.33;18.87;;;;;;;2.64;83.47;97093.13;5035792;28;20996;-86
2022/03/25 03:22:45;;;;;;;27.87;18.67;;;;;;;2.69;82.77;97089.34;5019246;28;20550;-86
2022/03/25 03:25:11;;;;;;;28.90;18.25;;;;;;;2.63;83.37;97088.88;5036159;28;20550;-86
2022/03/25 03:27:37;;;;;;;27.07;17.70;;;;;;;2.51;83.16;97085.19;5036102;28;20024;-86
2022/03/25 03:30:05;;;;;;;27.50;17.97;;;;;;;2.42;85.01;97089.19;5036086;28;20040;-86
2022/03/25 03:32:35;;;;;;;29.47;18.00;;;;;;;2.47;84.60;97087.13;5019788;28;20471;-87
2022/03/25 03:35:01;;;;;;;28.27;18.53;;;;;;;2.47;83.63;97084.53;5019790;28;20871;-87
2022/03/25 03:37:27;;;;;;;27.57;17.70;;;;;;;2.49;83.88;97081.88;5044031;28;20475;-86
2022/03/25 03:39:53;;;;;;;28.40;16.67;;;;;;;2.56;82.48;97086.63;5036588;28;20040;-87
2022/03/25 03:42:28;;;;;;;25.83;17.60;;;;;;;2.47;83.23;97081.13;5031860;28;21260;-86
2022/03/25 03:44:56;;;;;;;28.53;17.90;;;;;;;2.34;84.39;97078.38;5052193;28;20482;-87
2022/03/25 03:47:24;;;;;;;27.40;17.33;;;;;;;2.28;84.73;97083.91;5030484;28;20501;-87
2022/03/25 03:49:50;;;;;;;27.57;17.57;;;;;;;2.31;84.69;97078.56;5038856;28;20478;-86
2022/03/25 03:52:16;;;;;;;25.43;16.33;;;;;;;2.31;84.56;97083.75;5037898;28;20539;-87
2022/03/25 03:54:43;;;;;;;28.10;16.37;;;;;;;2.32;85.17;97082.84;5038923;28;20582;-86
2022/03/25 03:57:09;;;;;;;26.67;16.73;;;;;;;2.37;84.45;97078.22;5035097;28;20029;-86
2022/03/25 03:59:35;;;;;;;27.53;16.77;;;;;;;2.41;84.13;97079.69;5058472;28;20470;-86
2022/03/25 04:02:11;;;;;;;28.87;17.20;;;;;;;2.44;83.58;97082.13;5044668;28;20056;-87
2022/03/25 04:04:37;;;;;;;29.83;17.73;;;;;;;2.41;83.70;97089.25;5036787;28;20505;-85
2022/03/25 04:07:32;;;;;;;31.17;17.07;;;;;;;2.41;83.07;97087.50;5035485;28;20854;-87
2022/03/25 04:09:58;;;;;;;25.03;16.07;;;;;;;2.41;84.31;97084.06;5055516;28;20111;-86
2022/03/25 04:12:24;;;;;;;25.00;16.03;;;;;;;2.25;85.08;97078.94;5033494;28;20455;-86
2022/03/25 04:14:51;;;;;;;26.57;17.30;;;;;;;2.21;85.69;97077.41;5069512;28;20462;-86
2022/03/25 04:17:19;;;;;;;29.07;16.63;;;;;;;2.09;85.71;97077.19;5051593;28;20466;-87
2022/03/25 04:19:46;;;;;;;27.83;17.63;;;;;;;2.17;85.73;97086.28;5017560;28;20107;-86
2022/03/25 04:22:11;;;;;;;26.80;17.23;;;;;;;2.12;86.26;97087.41;5022860;28;20459;-86
2022/03/25 04:24:46;;;;;;;25.80;16.60;;;;;;;2.06;86.88;97090.34;5036943;28;20485;-86
2022/03/25 04:27:12;;;;;;;25.97;17.57;;;;;;;1.99;88.41;97081.22;5044776;28;20037;-86
2022/03/25 04:29:38;;;;;;;28.97;17.20;;;;;;;2.01;88.48;97086.31;5035088;28;20528;-86
2022/03/25 04:32:07;;;;;;;27.23;17.57;;;;;;;2.03;88.15;97085.31;5025864;28;20037;-86
2022/03/25 04:34:33;;;;;;;29.30;18.70;;;;;;;2.09;87.52;97089.34;5035289;28;20080;-86
2022/03/25 04:37:02;;;;;;;43.13;26.83;;;;;;;1.84;87.29;97082.91;5021155;28;20464;-86
2022/03/25 04:39:28;;;;;;;29.30;20.27;;;;;;;1.91;87.52;97085.97;5006933;28;20599;-85
2022/03/25 04:41:54;;;;;;;30.77;19.07;;;;;;;1.97;87.31;97088.25;5032915;28;20029;-86
2022/03/25 04:44:19;;;;;;;29.17;18.43;;;;;;;2.04;87.45;97089.56;5002864;28;20099;-86
2022/03/25 04:46:54;;;;;;;31.50;17.60;;;;;;;1.94;87.78;97092.78;5012744;28;20040;-86
2022/03/25 04:49:19;;;;;;;29.33;18.13;;;;;;;1.89;89.17;97093.88;5020645;28;20033;-86
2022/03/25 04:51:46;;;;;;;29.20;18.60;;;;;;;1.83;89.89;97088.19;5020151;28;20496;-87
2022/03/25 04:54:11;;;;;;;29.30;18.93;;;;;;;1.75;89.55;97085.19;5032881;28;20033;-87
2022/03/25 04:56:38;;;;;;;29.77;19.17;;;;;;;1.79;90.04;97086.69;5033454;28;20495;-85
2022/03/25 04:59:03;;;;;;;39.57;21.53;;;;;;;1.65;90.95;97095.22;5021700;28;20056;-86
2022/03/25 05:01:29;;;;;;;187.67;68.13;;;;;;;1.53;92.39;97101.88;5021489;28;20463;-86
2022/03/25 05:03:55;;;;;;;230.93;81.00;;;;;;;1.56;93.04;97093.94;5022575;28;20041;-85
2022/03/25 05:06:48;;;;;;;205.47;81.20;;;;;;;1.66;92.20;97096.88;5025451;28;20125;-85
2022/03/25 05:09:15;;;;;;;199.23;80.57;;;;;;;1.60;92.54;97102.38;5034908;28;20040;-86
2022/03/25 05:11:41;;;;;;;133.63;62.07;;;;;;;1.62;92.52;97100.56;5041251;28;20124;-85
2022/03/25 05:14:06;;;;;;;104.17;48.70;;;;;;;1.66;91.93;97094.28;5035677;28;20554;-86
2022/03/25 05:16:32;;;;;;;82.93;36.93;;;;;;;1.70;91.68;97106.16;5035521;28;20029;-86
2022/03/25 05:18:58;;;;;;;39.57;23.00;;;;;;;1.64;90.69;97099.56;5032703;28;20045;-85
2022/03/25 05:21:23;;;;;;;37.10;20.40;;;;;;;1.51;91.58;97100.28;5019544;28;20104;-86
2022/03/25 05:23:49;;;;;;;31.47;19.47;;;;;;;1.47;92.60;97109.97;5017322;28;20033;-87
2022/03/25 05:26:16;;;;;;;36.80;19.87;;;;;;;1.39;92.91;97109.56;5025159;28;20048;-87
2022/03/25 05:28:42;;;;;;;34.87;21.53;;;;;;;1.42;93.33;97104.22;5019299;28;20470;-87
2022/03/25 05:31:08;;;;;;;33.10;20.57;;;;;;;1.53;92.93;97106.25;5020776;28;20456;-86
2022/03/25 05:33:39;;;;;;;30.47;18.63;;;;;;;1.69;92.01;97095.88;5046211;28;20037;-86
2022/03/25 05:36:05;;;;;;;30.13;18.10;;;;;;;1.69;90.77;97099.31;5053503;28;20467;-86
2022/03/25 05:38:33;;;;;;;30.40;19.20;;;;;;;1.63;92.07;97112.59;5061181;28;20469;-87
2022/03/25 05:41:00;;;;;;;29.83;19.60;;;;;;;1.83;90.23;97108.94;5041138;28;20487;-86
2022/03/25 05:43:26;;;;;;;38.47;25.97;;;;;;;1.84;90.80;97108.00;5032182;28;20494;-87
2022/03/25 05:46:03;;;;;;;29.50;21.33;;;;;;;2.04;88.71;97107.72;5044396;28;20443;-85
2022/03/25 05:48:32;;;;;;;26.70;17.87;;;;;;;2.10;87.35;97111.75;5045027;28;20439;-85
2022/03/25 05:50:58;;;;;;;28.60;16.77;;;;;;;2.06;86.50;97113.69;5034624;28;20451;-86
2022/03/25 05:53:27;;;;;;;27.00;17.03;;;;;;;2.30;85.62;97108.03;5037311;28;20474;-85
2022/03/25 05:56:09;;;;;;;29.70;16.87;;;;;;;2.47;84.46;97110.50;5038099;28;20029;-86
2022/03/25 05:58:42;;;;;;;28.30;15.67;;;;;;;2.87;80.68;97113.41;5054360;28;20466;-85
2022/03/25 06:01:13;;;;;;;25.08;16.67;;;;;;;3.06;80.14;97107.97;5028228;28;20911;-85
2022/03/25 06:03:51;;;;;;;32.20;17.30;;;;;;;3.03;80.03;97103.78;5036034;28;20044;-86
2022/03/25 06:06:22;;;;;;;31.27;16.90;;;;;;;3.26;79.01;97104.16;5050841;28;20482;-85
2022/03/25 06:08:55;;;;;;;29.53;17.93;;;;;;;3.42;79.60;97104.03;5047897;28;20478;-82
2022/03/25 06:11:25;;;;;;;31.27;18.00;;;;;;;3.74;77.88;97100.31;5059845;28;20785;-83
2022/03/25 06:13:51;;;;;;;34.60;18.37;;;;;;;3.78;76.92;97106.97;5042724;28;20028;-82
2022/03/25 06:16:17;;;;;;;29.07;16.43;;;;;;;4.29;74.48;97103.75;5036520;28;20793;-83
2022/03/25 06:18:42;;;;;;;32.50;16.57;;;;;;;4.30;73.74;97105.44;5036168;28;20040;-83
2022/03/25 06:21:16;;;;;;;30.47;18.43;;;;;;;4.52;72.21;97102.25;5037986;28;20545;-83
2022/03/25 06:23:43;;;;;;;25.47;17.13;;;;;;;4.59;72.33;97111.34;5041593;28;20090;-83
2022/03/25 06:26:09;;;;;;;28.73;18.23;;;;;;;4.28;72.52;97109.06;5029911;28;20467;-83
2022/03/25 06:28:35;;;;;;;28.13;17.93;;;;;;;4.69;71.53;97106.38;5028940;28;20458;-84
2022/03/25 06:31:01;;;;;;;27.77;17.03;;;;;;;4.83;72.24;97115.88;5044806;28;20363;-84
2022/03/25 06:33:26;;;;;;;28.13;17.47;;;;;;;4.82;72.35;97115.03;5027473;28;20035;-83
2022/03/25 06:35:52;;;;;;;34.20;20.57;;;;;;;5.06;70.42;97111.72;5038366;28;20467;-83
2022/03/25 06:38:18;;;;;;;29.87;17.43;;;;;;;5.26;67.96;97110.38;5047097;28;20033;-84
2022/03/25 06:40:50;;;;;;;24.60;16.60;;;;;;;5.37;69.41;97113.09;5021723;28;20463;-83
2022/03/25 06:43:16;;;;;;;28.70;16.77;;;;;;;5.81;65.32;97114.41;5016235;28;20472;-82
2022/03/25 06:45:42;;;;;;;28.27;18.50;;;;;;;5.84;65.49;97114.19;5029960;28;20495;-83
2022/03/25 06:48:08;;;;;;;28.57;19.03;;;;;;;6.23;64.17;97115.72;5043689;28;20058;-84
2022/03/25 06:50:34;;;;;;;28.37;19.27;;;;;;;6.36;63.91;97113.91;5030662;28;20056;-83
2022/03/25 06:53:01;;;;;;;26.37;16.50;;;;;;;7.21;59.34;97118.09;5016654;28;20037;-83
2022/03/25 06:55:28;;;;;;;32.43;18.43;;;;;;;7.55;57.15;97111.13;5036281;28;20063;-84
2022/03/25 06:57:55;;;;;;;31.37;17.23;;;;;;;7.79;57.02;97117.06;5028763;28;20534;-84
2022/03/25 07:00:21;;;;;;;27.17;18.63;;;;;;;8.27;54.03;97108.88;5033135;28;20033;-84
2022/03/25 07:02:48;;;;;;;27.80;18.47;;;;;;;8.25;54.15;97110.78;5010341;28;20044;-84
2022/03/25 07:05:14;;;;;;;27.23;17.57;;;;;;;8.58;53.83;97111.66;5013040;28;20025;-85
2022/03/25 07:07:41;;;;;;;27.77;16.57;;;;;;;8.46;54.12;97115.28;5014489;28;20056;-84
2022/03/25 07:10:09;;;;;;;24.60;17.57;;;;;;;8.81;54.27;97111.56;5017187;28;20099;-83
2022/03/25 07:12:40;;;;;;;23.73;16.90;;;;;;;9.08;54.00;97119.75;5026000;28;20022;-84
2022/03/25 07:15:28;;;;;;;29.83;17.63;;;;;;;9.52;52.95;97119.59;5033221;28;20065;-84
2022/03/25 07:17:53;;;;;;;30.30;19.13;;;;;;;9.88;51.35;97121.69;5032536;28;20029;-83
2022/03/25 07:20:26;;;;;;;30.80;18.13;;;;;;;10.26;49.61;97109.66;5036897;28;20086;-84
2022/03/25 07:22:53;;;;;;;31.60;20.10;;;;;;;11.23;46.48;97117.56;5032041;28;20099;-85
2022/03/25 07:25:20;;;;;;;26.57;18.87;;;;;;;11.15;46.64;97114.78;5032657;28;20035;-84
2022/03/25 07:27:49;;;;;;;25.93;18.80;;;;;;;11.21;45.80;97116.03;5033808;28;20048;-84
2022/03/25 07:30:16;;;;;;;27.87;18.73;;;;;;;10.91;46.67;97111.78;5015956;28;20032;-84
2022/03/25 07:32:59;;;;;;;27.40;17.37;;;;;;;11.55;46.46;97117.19;5032311;28;20037;-84
2022/03/25 07:35:25;;;;;;;27.63;19.03;;;;;;;11.30;46.93;97123.06;5020173;28;20060;-83
2022/03/25 07:37:56;;;;;;;24.23;17.03;;;;;;;11.49;47.04;97125.66;5049824;28;20138;-84
2022/03/25 07:40:22;;;;;;;31.03;23.13;;;;;;;10.77;48.71;97134.91;5045520;28;20087;-84
2022/03/25 07:43:00;;;;;;;24.23;18.77;;;;;;;11.36;50.19;97132.19;5030684;28;20039;-84
2022/03/25 07:45:26;;;;;;;29.83;18.93;;;;;;;10.55;50.60;97143.88;5034744;28;20384;-84
2022/03/25 07:47:58;;;;;;;30.60;20.30;;;;;;;11.59;47.61;97135.34;5066211;28;20043;-83
2022/03/25 07:50:24;;;;;;;28.87;20.60;;;;;;;11.30;46.62;97144.13;5046553;28;20505;-84
2022/03/25 07:52:52;;;;;;;26.27;18.77;;;;;;;11.30;44.96;97144.97;5041723;28;20037;-83
2022/03/25 07:55:19;;;;;;;27.27;18.83;;;;;;;12.24;43.60;97138.84;5025603;28;20083;-83
2022/03/25 07:57:49;;;;;;;28.10;19.77;;;;;;;12.53;41.57;97137.81;5048821;28;20245;-83
2022/03/25 08:00:16;;;;;;;27.23;19.93;;;;;;;12.48;41.30;97136.47;5054103;28;20449;-83
2022/03/25 08:02:45;;;;;;;31.40;20.10;;;;;;;12.93;39.13;97138.22;5043161;28;20452;-83
2022/03/25 08:05:15;;;;;;;30.80;19.17;;;;;;;12.35;38.11;97151.00;5048544;28;20111;-84
2022/03/25 08:07:43;;;;;;;28.67;20.27;;;;;;;12.79;39.44;97144.03;5056763;28;20064;-83
2022/03/25 08:10:09;;;;;;;29.57;19.70;;;;;;;13.10;38.00;97147.09;5032575;28;20506;-84
2022/03/25 08:12:36;;;;;;;26.47;19.00;;;;;;;14.02;37.03;97148.41;5050005;28;20182;-84
2022/03/25 08:15:06;;;;;;;28.33;19.63;;;;;;;13.54;36.57;97148.94;5035429;28;20036;-84
2022/03/25 08:17:32;;;;;;;29.63;19.00;;;;;;;13.81;36.36;97146.13;5043178;28;20559;-83
2022/03/25 08:19:58;;;;;;;28.87;20.23;;;;;;;14.57;35.95;97147.13;5024839;28;20076;-84
2022/03/25 08:22:25;;;;;;;31.13;19.17;;;;;;;14.93;35.21;97150.34;5041399;28;20064;-83
2022/03/25 08:27:51;;;;;;;25.40;19.37;;;;;;;15.31;33.05;97146.19;5040319;28;20110;-84
2022/03/25 08:30:17;;;;;;;29.27;20.33;;;;;;;15.02;34.23;97154.66;5056325;28;20060;-82
2022/03/25 08:32:42;;;;;;;31.20;19.90;;;;;;;15.75;33.52;97152.97;5051211;28;20060;-83
2022/03/25 08:35:14;;;;;;;27.00;21.30;;;;;;;16.00;32.90;97148.44;5039186;28;20399;-83
2022/03/25 08:37:40;;;;;;;28.40;21.30;;;;;;;16.64;32.56;97149.16;5038774;28;20044;-84
2022/03/25 08:40:06;;;;;;;26.80;20.17;;;;;;;15.80;34.03;97150.66;5050927;28;20032;-83
2022/03/25 08:42:37;;;;;;;26.70;21.17;;;;;;;16.39;32.54;97151.09;5030120;28;20075;-83
2022/03/25 08:45:03;;;;;;;31.23;21.80;;;;;;;16.30;33.34;97151.28;5051970;28;20111;-83
2022/03/25 08:47:29;;;;;;;29.33;21.73;;;;;;;16.13;32.26;97151.38;5029783;28;20495;-83
2022/03/25 08:49:55;;;;;;;30.27;23.60;;;;;;;17.04;30.77;97139.28;5027213;28;20073;-83
2022/03/25 08:52:21;;;;;;;28.63;22.17;;;;;;;17.37;30.97;97139.00;5032348;28;20051;-83
2022/03/25 08:54:52;;;;;;;29.70;22.40;;;;;;;16.99;31.88;97131.00;5035331;28;20705;-83
2022/03/25 08:57:18;;;;;;;30.53;21.73;;;;;;;17.58;30.37;97135.69;5072810;28;20028;-83
2022/03/25 08:59:44;;;;;;;29.93;22.30;;;;;;;16.59;31.88;97140.88;5063866;28;20036;-83
2022/03/25 09:02:15;;;;;;;33.53;23.73;;;;;;;17.87;29.88;97132.22;5046860;28;20025;-82
2022/03/25 09:04:41;;;;;;;34.13;24.17;;;;;;;17.63;29.64;97134.09;5064201;28;20025;-83
2022/03/25 09:07:07;;;;;;;31.60;24.47;;;;;;;17.04;29.92;97139.28;5067286;28;20021;-83
2022/03/25 09:09:32;;;;;;;37.30;27.07;;;;;;;17.14;31.28;97137.22;5047744;28;20040;-83
2022/03/25 09:11:59;;;;;;;39.08;29.00;;;;;;;17.47;31.18;97134.28;5063668;28;20035;-83
2022/03/25 09:14:24;;;;;;;32.35;25.48;;;;;;;17.60;30.11;97137.13;5072277;28;20064;-84
2022/03/25 09:16:50;;;;;;;32.28;25.52;;;;;;;18.69;28.87;97125.91;5053597;28;20703;-83
2022/03/25 09:19:28;;;;;;;34.20;25.92;;;;;;;18.17;29.23;97130.38;5049193;28;20028;-83
2022/03/25 09:21:54;;;;;;;33.85;26.27;;;;;;;18.06;29.36;97125.53;5051777;28;20036;-83
2022/03/25 09:24:19;;;;;;;33.85;26.02;;;;;;;17.90;29.01;97130.03;5057425;28;20016;-83
2022/03/25 09:27:08;;;;;;;32.53;25.25;;;;;;;18.52;29.16;97130.63;5034457;28;20106;-83
2022/03/25 09:29:34;;;;;;;37.45;26.58;;;;;;;18.62;28.33;97128.50;5033229;28;20108;-82
2022/03/25 09:32:00;;;;;;;31.88;25.40;;;;;;;17.53;29.57;97133.53;5051089;28;20136;-83
2022/03/25 09:37:10;;;;;;;35.17;25.38;;;;;;;18.88;28.61;97133.31;5046509;28;20025;-82
2022/03/25 09:39:36;;;;;;;34.03;26.02;;;;;;;18.96;28.26;97133.19;5041328;28;20072;-82
2022/03/25 09:42:04;;;;;;;32.95;26.00;;;;;;;19.78;27.85;97139.81;5028555;28;20120;-82
2022/03/25 09:44:34;;;;;;;32.58;26.80;;;;;;;18.75;28.50;97134.00;5039141;28;20083;-83
2022/03/25 09:47:19;;;;;;;37.15;26.58;;;;;;;18.51;28.57;97132.47;5039641;28;20029;-83
2022/03/25 09:49:45;;;;;;;34.65;26.83;;;;;;;19.30;27.99;97134.31;5042208;28;20180;-82
2022/03/25 09:52:21;;;;;;;33.92;26.52;;;;;;;19.24;28.44;97135.88;5025586;28;20030;-82
2022/03/25 09:54:47;;;;;;;35.08;26.52;;;;;;;18.12;30.08;97138.94;5021981;28;20081;-82
2022/03/25 09:57:21;;;;;;;32.63;26.55;;;;;;;19.54;28.22;97133.88;5045638;28;20429;-82
2022/03/25 09:59:47;;;;;;;35.28;28.80;;;;;;;19.12;29.02;97128.63;5045283;28;20035;-82
2022/03/25 10:02:16;;;;;;;36.20;27.80;;;;;;;19.37;29.55;97127.19;5066448;28;20025;-82
2022/03/25 10:04:42;;;;;;;36.97;28.98;;;;;;;19.26;29.14;97123.19;5041396;28;20064;-82
2022/03/25 10:07:34;;;;;;;39.45;27.73;;;;;;;19.56;28.29;97136.38;5036444;28;20073;-82
2022/03/25 10:10:13;;;;;;;37.42;29.30;;;;;;;19.50;28.50;97129.13;5064193;28;20029;-82
2022/03/25 10:13:19;;;;;;;36.45;27.65;;;;;;;19.41;28.42;97131.09;5036017;28;20037;-82
2022/03/25 10:16:23;;;;;;;33.35;25.73;;;;;;;18.91;27.39;97129.41;5000313;28;20893;-82
2022/03/25 10:18:53;;;;;;;34.08;27.48;;;;;;;19.50;26.46;97132.63;5037075;28;20032;-83
2022/03/25 10:21:31;;;;;;;36.17;26.38;;;;;;;17.76;28.30;97137.97;5053426;28;20158;-83
2022/03/25 10:23:58;;;;;;;39.22;27.40;;;;;;;18.55;27.90;97131.06;5041026;28;20115;-82
2022/03/25 10:26:47;;;;;;;34.38;26.48;;;;;;;19.58;25.93;97130.81;5045100;28;20085;-82
2022/03/25 10:29:23;;;;;;;33.65;27.73;;;;;;;18.60;27.18;97131.31;5028994;28;20032;-82
2022/03/25 10:32:05;;;;;;;33.30;25.65;;;;;;;18.53;27.96;97124.28;5045456;28;20028;-82
2022/03/25 10:34:39;;;;;;;32.90;27.07;;;;;;;18.61;27.41;97127.66;5043690;28;20082;-82
2022/03/25 10:37:54;;;;;;;39.30;26.63;;;;;;;18.84;27.47;97126.69;5049074;28;20046;-82
2022/03/25 10:40:21;;;;;;;37.53;25.80;;;;;;;18.75;27.60;97126.00;5047867;28;20060;-82
2022/03/25 10:43:10;;;;;;;35.08;27.08;;;;;;;18.64;28.06;97120.28;5049642;28;20043;-82
2022/03/25 10:45:45;;;;;;;39.53;27.88;;;;;;;18.62;27.86;97115.16;5049595;28;20097;-82
2022/03/25 10:48:25;;;;;;;36.38;29.23;;;;;;;18.46;28.47;97118.06;5059463;28;20490;-82
2022/03/25 10:51:11;;;;;;;37.65;27.23;;;;;;;18.82;27.60;97118.91;5032767;28;20026;-82
2022/03/25 10:53:54;;;;;;;37.10;27.75;;;;;;;19.16;27.33;97120.03;5050821;28;20652;-82
2022/03/25 10:56:28;;;;;;;37.88;29.67;;;;;;;19.64;27.75;97122.09;5042874;28;20029;-82
2022/03/25 10:59:00;;;;;;;37.05;28.63;;;;;;;19.53;27.35;97118.91;5045110;28;20051;-82
2022/03/25 11:01:37;;;;;;;34.25;28.08;;;;;;;19.57;27.11;97124.66;5052734;28;20036;-82
2022/03/25 11:04:14;;;;;;;35.28;27.80;;;;;;;19.25;26.97;97116.22;5030117;28;20486;-82
2022/03/25 11:06:48;;;;;;;40.20;29.40;;;;;;;19.21;26.97;97117.59;5037524;28;20037;-83
2022/03/25 11:09:22;;;;;;;37.05;28.98;;;;;;;18.77;28.05;97121.28;5056948;28;20025;-82
2022/03/25 11:11:52;;;;;;;38.95;29.27;;;;;;;19.34;26.70;97110.75;5036827;28;20033;-82
2022/03/25 11:14:19;;;;;;;36.67;28.00;;;;;;;19.28;27.34;97112.31;5036737;28;20123;-82
2022/03/25 11:16:58;;;;;;;38.10;28.85;;;;;;;19.32;27.12;97116.28;5022599;28;20031;-82
2022/03/25 11:19:24;;;;;;;39.15;28.60;;;;;;;19.20;26.91;97104.47;5031344;28;20043;-82
2022/03/25 11:21:51;;;;;;;35.53;28.02;;;;;;;19.75;26.68;97098.38;5030685;28;20386;-82
2022/03/25 11:24:25;;;;;;;39.10;29.27;;;;;;;20.28;26.19;97097.78;5032416;28;20029;-82
2022/03/25 11:26:53;;;;;;;34.38;26.13;;;;;;;21.13;25.30;97098.25;5057297;28;20120;-82
2022/03/25 11:29:23;;;;;;;33.10;26.08;;;;;;;21.16;24.18;97089.81;5051326;28;20120;-82
2022/03/25 11:32:13;;;;;;;34.65;27.35;;;;;;;20.97;25.74;97095.97;5052587;28;20108;-82
2022/03/25 11:34:41;;;;;;;35.75;27.65;;;;;;;20.71;25.56;97090.34;5060389;28;20029;-82
2022/03/25 11:37:24;;;;;;;33.33;28.10;;;;;;;20.15;25.59;97097.72;5021800;28;20387;-82